createdAt,value
2023-05-23T00:00:33.697Z,100594.06
2023-05-23T00:03:14.964Z,100591.38
2023-05-23T00:05:41.848Z,100585.94
2023-05-23T00:08:08.751Z,100583.22
2023-05-23T00:10:38.081Z,100581.19
2023-05-23T00:13:08.333Z,100579.97
2023-05-23T00:15:41.634Z,100579.31
2023-05-23T00:18:17.480Z,100583.53
2023-05-23T00:20:45.656Z,100583.34
2023-05-23T00:23:22.408Z,100583.19
2023-05-23T00:26:00.883Z,100568.75
2023-05-23T00:28:30.457Z,100575.22
2023-05-23T00:30:57.294Z,100563.31
2023-05-23T00:33:33.452Z,100575.59
2023-05-23T00:36:12.317Z,100565.81
2023-05-23T00:38:39.627Z,100565.28
2023-05-23T00:41:11.333Z,100570.88
2023-05-23T00:43:38.226Z,100565.97
2023-05-23T00:46:10.020Z,100565.69
2023-05-23T00:48:38.630Z,100563.31
2023-05-23T00:51:10.776Z,100564.81
2023-05-23T00:53:40.643Z,100564.47
2023-05-23T00:56:07.830Z,100560.91
2023-05-23T00:58:37.337Z,100555.31
2023-05-23T01:01:08.260Z,100555.31
2023-05-23T01:03:35.056Z,100555.31
2023-05-23T01:06:02.447Z,100553.09
2023-05-23T01:08:32.220Z,100553.09
2023-05-23T01:11:10.718Z,100549.88
2023-05-23T01:13:56.305Z,100543.97
2023-05-23T01:16:48.555Z,100551.63
2023-05-23T01:20:09.108Z,100550.47
2023-05-23T01:23:04.940Z,100546.31
2023-05-23T01:26:18.716Z,100546.84
2023-05-23T01:28:56.633Z,100533.84
2023-05-23T01:31:32.340Z,100537.09
2023-05-23T01:33:59.326Z,100524.69
2023-05-23T01:36:33.587Z,100536.53
2023-05-23T01:39:03.201Z,100539.44
2023-05-23T01:41:33.591Z,100536.41
2023-05-23T01:44:03.317Z,100537.41
2023-05-23T01:46:44.314Z,100533.56
2023-05-23T01:49:15.687Z,100536.59
2023-05-23T01:51:49.998Z,100523.19
2023-05-23T01:54:21.708Z,100528.63
2023-05-23T01:56:54.479Z,100523.56
2023-05-23T01:59:21.304Z,100519.50
2023-05-23T02:01:48.228Z,100526.31
2023-05-23T02:04:18.588Z,100525.09
2023-05-23T02:06:46.572Z,100518.50
2023-05-23T02:09:13.995Z,100518.97
2023-05-23T02:11:40.622Z,100514.06
2023-05-23T02:14:07.776Z,100520.97
2023-05-23T02:16:36.505Z,100518.28
2023-05-23T02:19:11.790Z,100521.34
2023-05-23T02:21:47.588Z,100522.19
2023-05-23T02:24:14.617Z,100520.31
2023-05-23T02:26:44.540Z,100532.28
2023-05-23T02:29:11.503Z,100534.00
2023-05-23T02:31:41.341Z,100536.72
2023-05-23T02:34:08.191Z,100533.34
2023-05-23T02:36:37.156Z,100528.44
2023-05-23T02:39:08.011Z,100516.09
2023-05-23T02:41:34.766Z,100516.63
2023-05-23T02:44:05.858Z,100503.75
2023-05-23T02:46:35.850Z,100509.72
2023-05-23T02:49:08.845Z,100503.25
2023-05-23T02:51:36.139Z,100511.88
2023-05-23T02:54:06.223Z,100526.81
2023-05-23T02:56:32.923Z,100525.97
2023-05-23T02:59:07.257Z,100507.66
2023-05-23T03:01:40.757Z,100512.75
2023-05-23T03:04:07.822Z,100513.63
2023-05-23T03:06:36.930Z,100513.41
2023-05-23T03:09:06.498Z,100505.78
2023-05-23T03:11:33.273Z,100510.22
2023-05-23T03:14:03.243Z,100509.88
2023-05-23T03:16:33.241Z,100503.75
2023-05-23T03:19:21.795Z,100513.63
2023-05-23T03:21:50.316Z,100513.41
2023-05-23T03:24:17.046Z,100511.88
2023-05-23T03:26:44.018Z,100522.53
2023-05-23T03:29:11.321Z,100515.94
2023-05-23T03:31:44.088Z,100505.41
2023-05-23T03:34:10.787Z,100507.28
2023-05-23T03:36:39.257Z,100511.34
2023-05-23T03:39:11.602Z,100506.09
2023-05-23T03:41:44.386Z,100500.13
2023-05-23T03:44:11.330Z,100487.91
2023-05-23T03:46:39.646Z,100491.59
2023-05-23T03:49:09.080Z,100500.34
2023-05-23T03:51:35.695Z,100495.88
2023-05-23T03:54:02.492Z,100487.56
2023-05-23T03:56:29.230Z,100489.41
2023-05-23T03:58:55.897Z,100486.69
2023-05-23T04:01:22.866Z,100495.50
2023-05-23T04:03:55.822Z,100487.56
2023-05-23T04:06:23.346Z,100497.19
2023-05-23T04:08:50.001Z,100490.06
2023-05-23T04:11:19.750Z,100488.84
2023-05-23T04:13:49.606Z,100488.41
2023-05-23T04:16:16.632Z,100486.16
2023-05-23T04:18:43.461Z,100489.72
2023-05-23T04:21:15.997Z,100500.59
2023-05-23T04:23:42.694Z,100493.94
2023-05-23T04:26:13.047Z,100496.81
2023-05-23T04:28:48.734Z,100492.78
2023-05-23T04:31:15.862Z,100482.13
2023-05-23T04:33:42.928Z,100497.19
2023-05-23T04:36:11.774Z,100492.78
2023-05-23T04:38:42.379Z,100491.22
2023-05-23T04:41:10.322Z,100494.41
2023-05-23T04:43:46.189Z,100496.78
2023-05-23T04:46:13.946Z,100486.09
2023-05-23T04:48:40.689Z,100493.56
2023-05-23T04:51:11.418Z,100493.75
2023-05-23T04:53:41.308Z,100490.56
2023-05-23T04:56:11.014Z,100483.81
2023-05-23T04:58:37.841Z,100481.28
2023-05-23T05:01:08.702Z,100486.34
2023-05-23T05:03:38.196Z,100481.09
2023-05-23T05:06:08.473Z,100483.44
2023-05-23T05:08:41.073Z,100491.41
2023-05-23T05:11:09.249Z,100507.38
2023-05-23T05:13:38.134Z,100511.09
2023-05-23T05:16:08.404Z,100504.06
2023-05-23T05:18:42.562Z,100502.06
2023-05-23T05:21:09.574Z,100521.78
2023-05-23T05:23:38.671Z,100504.22
2023-05-23T05:26:17.859Z,100517.31
2023-05-23T05:28:44.708Z,100522.75
2023-05-23T05:31:15.512Z,100517.72
2023-05-23T05:33:46.015Z,100523.22
2023-05-23T05:36:18.463Z,100531.19
2023-05-23T05:38:50.036Z,100535.25
2023-05-23T05:41:20.254Z,100525.63
2023-05-23T05:43:50.337Z,100535.66
2023-05-23T05:46:17.286Z,100543.09
2023-05-23T05:48:51.758Z,100541.25
2023-05-23T05:51:18.624Z,100537.88
2023-05-23T05:53:46.401Z,100539.06
2023-05-23T05:56:15.967Z,100543.28
2023-05-23T05:58:43.355Z,100552.41
2023-05-23T06:01:12.620Z,100549.53
2023-05-23T06:03:41.682Z,100533.16
2023-05-23T06:06:09.105Z,100556.00
2023-05-23T06:08:41.616Z,100546.88
2023-05-23T06:11:08.432Z,100543.47
2023-05-23T06:13:52.008Z,100546.69
2023-05-23T06:16:18.901Z,100554.59
2023-05-23T06:18:45.620Z,100560.91
2023-05-23T06:21:12.425Z,100568.50
2023-05-23T06:23:48.233Z,100564.13
2023-05-23T06:26:15.173Z,100572.94
2023-05-23T06:28:45.108Z,100581.22
2023-05-23T06:31:12.447Z,100588.50
2023-05-23T06:33:39.218Z,100588.66
2023-05-23T06:36:08.561Z,100596.97
2023-05-23T06:38:38.371Z,100592.41
2023-05-23T06:41:08.665Z,100600.53
2023-05-23T06:46:22.638Z,100594.22
2023-05-23T06:48:54.251Z,100604.88
2023-05-23T06:51:26.125Z,100608.75
2023-05-23T06:54:07.886Z,100613.47
2023-05-23T06:56:38.867Z,100606.84
2023-05-23T06:59:16.765Z,100612.94
2023-05-23T07:01:51.421Z,100620.19
2023-05-23T07:04:20.589Z,100618.50
2023-05-23T07:06:54.970Z,100618.16
2023-05-23T07:09:22.166Z,100616.09
2023-05-23T07:11:48.857Z,100618.66
2023-05-23T07:14:17.572Z,100626.47
2023-05-23T07:16:44.464Z,100620.75
2023-05-23T07:19:13.700Z,100614.50
2023-05-23T07:21:46.732Z,100619.25
2023-05-23T07:24:13.506Z,100608.56
2023-05-23T07:26:40.898Z,100615.66
2023-05-23T07:29:07.856Z,100624.13
2023-05-23T07:31:34.828Z,100622.25
2023-05-23T07:34:02.771Z,100619.91
2023-05-23T07:36:48.410Z,100629.50
2023-05-23T07:39:24.400Z,100622.06
2023-05-23T07:41:51.408Z,100629.84
2023-05-23T07:44:23.298Z,100636.78
2023-05-23T07:46:52.021Z,100639.13
2023-05-23T07:49:19.245Z,100638.13
2023-05-23T07:51:48.274Z,100634.38
2023-05-23T07:54:16.482Z,100646.44
2023-05-23T07:56:45.307Z,100650.84
2023-05-23T07:59:14.708Z,100647.94
2023-05-23T08:01:47.105Z,100650.34
2023-05-23T08:04:14.071Z,100649.50
2023-05-23T08:07:00.773Z,100650.66
2023-05-23T08:09:31.617Z,100653.06
2023-05-23T08:11:58.552Z,100662.22
2023-05-23T08:14:38.749Z,100651.56
2023-05-23T08:17:16.443Z,100669.34
2023-05-23T08:19:45.037Z,100664.63
2023-05-23T08:22:14.674Z,100668.19
2023-05-23T08:24:46.978Z,100676.16
2023-05-23T08:27:13.768Z,100678.38
2023-05-23T08:29:49.724Z,100690.03
2023-05-23T08:32:19.632Z,100690.16
2023-05-23T08:34:49.571Z,100682.72
2023-05-23T08:37:16.467Z,100690.97
2023-05-23T08:39:49.271Z,100687.13
2023-05-23T08:42:16.296Z,100692.69
2023-05-23T08:44:43.676Z,100695.09
2023-05-23T08:47:15.248Z,100698.81
2023-05-23T08:49:49.663Z,100699.16
2023-05-23T08:52:24.965Z,100699.16
2023-05-23T08:54:57.428Z,100695.94
2023-05-23T08:57:25.034Z,100706.94
2023-05-23T08:59:56.884Z,100710.47
2023-05-23T09:02:25.066Z,100716.06
2023-05-23T09:05:01.213Z,100714.53
2023-05-23T09:07:31.554Z,100715.56
2023-05-23T09:10:01.455Z,100717.22
2023-05-23T09:12:28.233Z,100724.31
2023-05-23T09:15:02.449Z,100737.97
2023-05-23T09:17:29.083Z,100739.78
2023-05-23T09:19:55.858Z,100738.91
2023-05-23T09:22:29.170Z,100750.38
2023-05-23T09:24:57.961Z,100757.44
2023-05-23T09:27:24.949Z,100760.78
2023-05-23T09:29:51.726Z,100761.59
2023-05-23T09:32:25.831Z,100764.75
2023-05-23T09:35:07.323Z,100757.94
2023-05-23T09:37:43.318Z,100757.88
2023-05-23T09:40:18.654Z,100760.00
2023-05-23T09:42:49.816Z,100771.63
2023-05-23T09:45:17.332Z,100762.75
2023-05-23T09:47:56.588Z,100765.22
2023-05-23T09:50:36.352Z,100764.75
2023-05-23T09:53:03.265Z,100770.69
2023-05-23T09:55:33.598Z,100764.81
2023-05-23T09:58:04.954Z,100764.50
2023-05-23T10:00:33.160Z,100771.28
2023-05-23T10:03:14.271Z,100763.88
2023-05-23T10:06:06.719Z,100768.91
2023-05-23T10:08:58.723Z,100769.06
2023-05-23T10:11:34.770Z,100786.13
2023-05-23T10:14:11.500Z,100786.22
2023-05-23T10:17:06.762Z,100787.66
2023-05-23T10:20:08.631Z,100786.31
2023-05-23T10:22:38.379Z,100792.41
2023-05-23T10:25:10.539Z,100792.41
2023-05-23T10:27:39.885Z,100797.13
2023-05-23T10:30:11.392Z,100804.34
2023-05-23T10:32:43.832Z,100800.81
2023-05-23T10:35:52.083Z,100807.75
2023-05-23T10:38:52.047Z,100813.78
2023-05-23T10:41:58.322Z,100815.09
2023-05-23T10:44:29.701Z,100817.94
2023-05-23T10:47:06.515Z,100817.34
2023-05-23T10:49:54.831Z,100819.00
2023-05-23T10:52:28.031Z,100817.72
2023-05-23T10:54:56.597Z,100822.53
2023-05-23T10:57:29.968Z,100820.00
2023-05-23T10:59:57.513Z,100816.50
2023-05-23T11:02:29.663Z,100821.97
2023-05-23T11:05:24.728Z,100819.97
2023-05-23T11:08:17.780Z,100822.13
2023-05-23T11:11:02.313Z,100834.44
2023-05-23T11:13:57.067Z,100827.16
2023-05-23T11:16:47.231Z,100826.63
2023-05-23T11:19:20.394Z,100837.41
2023-05-23T11:22:02.565Z,100831.53
2023-05-23T11:24:59.893Z,100838.06
2023-05-23T11:27:38.080Z,100842.31
2023-05-23T11:30:18.555Z,100847.34
2023-05-23T11:32:56.455Z,100851.41
2023-05-23T11:35:23.877Z,100850.78
2023-05-23T11:37:51.394Z,100852.22
2023-05-23T11:40:34.760Z,100843.94
2023-05-23T11:43:12.265Z,100851.72
2023-05-23T11:45:46.192Z,100843.78
2023-05-23T11:48:19.828Z,100857.00
2023-05-23T11:51:01.016Z,100856.66
2023-05-23T11:53:35.289Z,100854.28
2023-05-23T11:56:03.560Z,100863.22
2023-05-23T11:58:40.074Z,100857.41
2023-05-23T12:01:13.825Z,100865.38
2023-05-23T12:03:55.281Z,100866.25
2023-05-23T12:06:27.591Z,100869.34
2023-05-23T12:09:00.218Z,100868.00
2023-05-23T12:11:27.678Z,100865.63
2023-05-23T12:17:00.050Z,100885.16
2023-05-23T12:19:27.568Z,100868.75
2023-05-23T12:22:12.732Z,100879.19
2023-05-23T12:27:41.847Z,100885.00
2023-05-23T12:30:16.740Z,100873.31
2023-05-23T12:32:58.358Z,100881.44
2023-05-23T12:35:26.237Z,100876.44
2023-05-23T12:37:59.503Z,100882.31
2023-05-23T12:40:26.608Z,100887.53
2023-05-23T12:42:57.392Z,100875.13
2023-05-23T12:45:37.922Z,100883.94
2023-05-23T12:48:09.355Z,100886.28
2023-05-23T12:50:36.954Z,100891.47
2023-05-23T12:53:07.955Z,100884.53
2023-05-23T12:55:34.835Z,100881.97
2023-05-23T12:58:01.538Z,100888.88
2023-05-23T13:00:28.189Z,100888.03
2023-05-23T13:02:58.093Z,100875.25
2023-05-23T13:05:25.005Z,100883.06
2023-05-23T13:07:52.005Z,100893.91
2023-05-23T13:10:21.601Z,100896.75
2023-05-23T13:12:52.064Z,100895.34
2023-05-23T13:15:19.139Z,100900.75
2023-05-23T13:17:50.177Z,100900.84
2023-05-23T13:20:17.760Z,100907.38
2023-05-23T13:22:44.613Z,100914.91
2023-05-23T13:25:12.221Z,100906.72
2023-05-23T13:27:39.252Z,100907.84
2023-05-23T13:30:12.631Z,100907.44
2023-05-23T13:32:41.496Z,100914.00
2023-05-23T13:35:13.246Z,100916.19
2023-05-23T13:37:40.419Z,100919.44
2023-05-23T13:40:19.527Z,100911.00
2023-05-23T13:42:52.104Z,100917.22
2023-05-23T13:45:22.503Z,100907.84
2023-05-23T13:47:55.139Z,100909.47
2023-05-23T13:50:21.944Z,100921.16
2023-05-23T13:53:00.561Z,100926.28
2023-05-23T13:55:27.609Z,100921.97
2023-05-23T14:00:39.220Z,100920.44
2023-05-23T14:03:10.243Z,100922.88
2023-05-23T14:05:37.450Z,100920.38
2023-05-23T14:08:14.072Z,100927.84
2023-05-23T14:10:44.097Z,100923.09
2023-05-23T14:13:19.794Z,100936.63
2023-05-23T14:15:46.692Z,100936.09
2023-05-23T14:18:14.824Z,100937.94
2023-05-23T14:20:47.865Z,100943.72
2023-05-23T14:23:20.756Z,100936.78
2023-05-23T14:25:47.383Z,100942.53
2023-05-23T14:28:14.545Z,100935.94
2023-05-23T14:30:41.266Z,100943.78
2023-05-23T14:33:10.591Z,100954.66
2023-05-23T14:35:39.861Z,100945.84
2023-05-23T14:38:12.583Z,100939.53
2023-05-23T14:40:39.268Z,100954.31
2023-05-23T14:43:09.495Z,100949.72
2023-05-23T14:45:37.067Z,100949.56
2023-05-23T14:48:09.802Z,100961.09
2023-05-23T14:50:40.662Z,100953.94
2023-05-23T14:53:28.768Z,100955.81
2023-05-23T14:56:02.360Z,100948.47
2023-05-23T14:58:32.660Z,100955.47
2023-05-23T15:00:59.697Z,100959.66
2023-05-23T15:03:27.108Z,100955.44
2023-05-23T15:06:06.863Z,100962.63
2023-05-23T15:08:38.552Z,100969.78
2023-05-23T15:11:09.755Z,100970.16
2023-05-23T15:13:41.626Z,100966.81
2023-05-23T15:16:08.566Z,100964.97
2023-05-23T15:18:41.347Z,100982.28
2023-05-23T15:21:14.604Z,100983.97
2023-05-23T15:23:41.682Z,100984.50
2023-05-23T15:26:08.573Z,100982.81
2023-05-23T15:28:35.381Z,100976.00
2023-05-23T15:31:08.216Z,100980.59
2023-05-23T15:33:34.954Z,100992.97
2023-05-23T15:36:08.131Z,100991.97
2023-05-23T15:38:34.848Z,100995.00
2023-05-23T15:41:08.826Z,100997.06
2023-05-23T15:43:45.155Z,100998.06
2023-05-23T15:46:12.097Z,101001.69
2023-05-23T15:48:41.724Z,101007.84
2023-05-23T15:51:14.514Z,100993.16
2023-05-23T15:53:59.225Z,100999.94
2023-05-23T15:56:34.594Z,100998.16
2023-05-23T15:59:07.695Z,100999.09
2023-05-23T16:01:59.672Z,100998.34
2023-05-23T16:04:46.491Z,100992.03
2023-05-23T16:07:19.556Z,100998.41
2023-05-23T16:09:46.232Z,100999.69
2023-05-23T16:12:14.869Z,100989.47
2023-05-23T16:14:44.198Z,100993.56
2023-05-23T16:17:11.004Z,101001.97
2023-05-23T16:19:38.094Z,101000.78
2023-05-23T16:22:08.178Z,100992.81
2023-05-23T16:24:35.225Z,100994.47
2023-05-23T16:27:06.327Z,100984.91
2023-05-23T16:29:35.366Z,100988.56
2023-05-23T16:32:02.408Z,101009.31
2023-05-23T16:34:29.695Z,100996.72
2023-05-23T16:36:59.352Z,101004.44
2023-05-23T16:39:26.054Z,101009.84
2023-05-23T16:42:00.714Z,100998.34
2023-05-23T16:44:27.785Z,101002.06
2023-05-23T16:46:57.603Z,100999.50
2023-05-23T16:49:24.286Z,101001.09
2023-05-23T16:51:51.104Z,100998.56
2023-05-23T16:54:17.909Z,101004.97
2023-05-23T16:56:44.579Z,101001.56
2023-05-23T16:59:11.520Z,100999.88
2023-05-23T17:01:49.980Z,101001.34
2023-05-23T17:04:20.571Z,100992.16
2023-05-23T17:07:08.210Z,101000.03
2023-05-23T17:09:42.929Z,100998.41
2023-05-23T17:12:10.099Z,101007.22
2023-05-23T17:14:41.615Z,101003.91
2023-05-23T17:17:08.336Z,101006.34
2023-05-23T17:19:51.400Z,100995.63
2023-05-23T17:22:26.822Z,101004.66
2023-05-23T17:25:07.800Z,101012.38
2023-05-23T17:27:37.063Z,101002.34
2023-05-23T17:30:27.730Z,101024.66
2023-05-23T17:32:57.954Z,101030.75
2023-05-23T17:35:29.880Z,101035.75
2023-05-23T17:38:11.861Z,101032.94
2023-05-23T17:40:43.422Z,101037.94
2023-05-23T17:43:13.240Z,101029.97
2023-05-23T17:45:45.702Z,101030.84
2023-05-23T17:48:16.640Z,101028.72
2023-05-23T17:50:45.169Z,101035.13
2023-05-23T17:56:00.271Z,101044.41
2023-05-23T17:58:27.254Z,101037.41
2023-05-23T18:01:02.790Z,101043.53
2023-05-23T18:03:30.895Z,101050.75
2023-05-23T18:06:00.743Z,101043.94
2023-05-23T18:08:30.283Z,101050.91
2023-05-23T18:11:00.373Z,101052.88
2023-05-23T18:13:27.425Z,101053.06
2023-05-23T18:16:02.127Z,101056.19
2023-05-23T18:18:34.821Z,101060.72
2023-05-23T18:21:02.863Z,101056.31
2023-05-23T18:23:29.829Z,101061.72
2023-05-23T18:25:59.908Z,101063.69
2023-05-23T18:28:26.987Z,101071.53
2023-05-23T18:31:00.678Z,101066.97
2023-05-23T18:33:27.865Z,101062.56
2023-05-23T18:36:13.080Z,101061.44
2023-05-23T18:38:41.684Z,101066.69
2023-05-23T18:41:13.201Z,101065.13
2023-05-23T18:43:42.727Z,101068.97
2023-05-23T18:46:13.244Z,101062.00
2023-05-23T18:48:43.101Z,101061.72
2023-05-23T18:51:14.405Z,101062.88
2023-05-23T18:53:44.166Z,101064.16
2023-05-23T18:56:14.213Z,101067.09
2023-05-23T18:58:45.407Z,101063.03
2023-05-23T19:01:21.912Z,101070.69
2023-05-23T19:03:50.658Z,101081.47
2023-05-23T19:06:17.571Z,101069.81
2023-05-23T19:08:44.382Z,101070.38
2023-05-23T19:11:11.263Z,101071.38
2023-05-23T19:13:41.549Z,101067.81
2023-05-23T19:16:13.209Z,101064.41
2023-05-23T19:18:40.759Z,101064.84
2023-05-23T19:21:16.508Z,101070.22
2023-05-23T19:23:45.215Z,101072.38
2023-05-23T19:26:13.565Z,101070.09
2023-05-23T19:31:22.030Z,101073.94
2023-05-23T19:33:50.678Z,101087.25
2023-05-23T19:36:21.340Z,101081.16
2023-05-23T19:38:48.255Z,101077.75
2023-05-23T19:41:15.102Z,101079.34
2023-05-23T19:43:41.761Z,101079.16
2023-05-23T19:46:11.666Z,101088.81
2023-05-23T19:48:39.111Z,101088.94
2023-05-23T19:51:13.660Z,101091.66
2023-05-23T19:53:47.447Z,101101.31
2023-05-23T19:56:16.664Z,101095.22
2023-05-23T19:58:46.204Z,101089.66
2023-05-23T20:01:13.256Z,101097.63
2023-05-23T20:03:39.951Z,101089.81
2023-05-23T20:06:06.815Z,101095.47
2023-05-23T20:08:33.580Z,101102.44
2023-05-23T20:11:03.118Z,101101.44
2023-05-23T20:13:31.617Z,101103.13
2023-05-23T20:15:58.610Z,101101.75
2023-05-23T20:18:28.311Z,101091.34
2023-05-23T20:20:57.854Z,101098.63
2023-05-23T20:23:24.640Z,101096.19
2023-05-23T20:25:51.791Z,101097.19
2023-05-23T20:28:23.651Z,101085.97
2023-05-23T20:30:56.750Z,101100.44
2023-05-23T20:33:23.659Z,101099.03
2023-05-23T20:36:12.096Z,101098.16
2023-05-23T20:38:39.255Z,101105.13
2023-05-23T20:41:10.459Z,101091.66
2023-05-23T20:43:37.879Z,101092.06
2023-05-23T20:46:19.596Z,101089.81
2023-05-23T20:48:46.406Z,101090.97
2023-05-23T20:51:13.489Z,101098.88
2023-05-23T20:53:40.547Z,101095.75
2023-05-23T20:56:16.240Z,101091.50
2023-05-23T20:58:45.943Z,101099.84
2023-05-23T21:01:17.106Z,101092.66
2023-05-23T21:03:44.108Z,101084.97
2023-05-23T21:06:17.711Z,101084.69
2023-05-23T21:08:47.417Z,101088.22
2023-05-23T21:11:17.177Z,101090.94
2023-05-23T21:13:47.529Z,101086.66
2023-05-23T21:16:17.122Z,101086.09
2023-05-23T21:18:45.699Z,101083.56
2023-05-23T21:21:15.832Z,101082.97
2023-05-23T21:23:42.611Z,101076.16
2023-05-23T21:26:09.409Z,101074.75
2023-05-23T21:28:36.076Z,101090.19
2023-05-23T21:31:15.181Z,101091.03
2023-05-23T21:33:42.140Z,101086.50
2023-05-23T21:36:08.901Z,101091.59
2023-05-23T21:38:37.480Z,101092.59
2023-05-23T21:41:07.506Z,101101.69
2023-05-23T21:43:36.627Z,101096.31
2023-05-23T21:46:09.143Z,101106.91
2023-05-23T21:48:35.921Z,101098.13
2023-05-23T21:51:05.860Z,101106.34
2023-05-23T21:53:35.886Z,101095.84
2023-05-23T21:56:08.594Z,101104.38
2023-05-23T21:58:35.419Z,101095.84
2023-05-23T22:01:07.601Z,101105.47
2023-05-23T22:03:34.447Z,101096.00
2023-05-23T22:06:01.278Z,101088.88
2023-05-23T22:08:31.798Z,101085.47
2023-05-23T22:10:59.485Z,101094.41
2023-05-23T22:13:27.351Z,101099.53
2023-05-23T22:15:56.896Z,101100.78
2023-05-23T22:18:27.672Z,101109.59
2023-05-23T22:20:55.964Z,101099.78
2023-05-23T22:23:23.178Z,101099.94
2023-05-23T22:25:49.967Z,101102.47
2023-05-23T22:28:19.011Z,101093.13
2023-05-23T22:30:56.269Z,101101.06
2023-05-23T22:33:22.997Z,101096.66
2023-05-23T22:35:50.149Z,101103.63
2023-05-23T22:38:22.555Z,101105.47
2023-05-23T22:40:50.992Z,101103.06
2023-05-23T22:43:21.699Z,101103.34
2023-05-23T22:45:50.081Z,101105.19
2023-05-23T22:48:22.285Z,101101.22
2023-05-23T22:50:50.944Z,101105.91
2023-05-23T22:53:17.946Z,101096.97
2023-05-23T22:55:48.012Z,101092.44
2023-05-23T22:58:14.964Z,101095.13
2023-05-23T23:00:41.824Z,101097.69
2023-05-23T23:03:08.961Z,101098.94
2023-05-23T23:05:35.857Z,101101.50
2023-05-23T23:08:24.689Z,101098.81
2023-05-23T23:10:57.535Z,101100.50
2023-05-23T23:13:24.418Z,101094.69
2023-05-23T23:15:54.806Z,101100.19
2023-05-23T23:18:22.005Z,101095.53
2023-05-23T23:20:48.911Z,101102.22
2023-05-23T23:23:15.791Z,101102.34
2023-05-23T23:25:42.619Z,101102.06
2023-05-23T23:28:11.877Z,101101.38
2023-05-23T23:30:38.647Z,101107.63
2023-05-23T23:33:11.062Z,101106.63
2023-05-23T23:35:40.999Z,101103.91
2023-05-23T23:38:14.468Z,101098.09
2023-05-23T23:40:45.657Z,101103.91
2023-05-23T23:43:13.952Z,101108.34
2023-05-23T23:45:40.822Z,101100.09
2023-05-23T23:48:26.789Z,101103.50
2023-05-23T23:51:01.459Z,101101.09
2023-05-23T23:53:28.108Z,101099.13
2023-05-23T23:55:57.048Z,101099.69
2023-05-23T23:58:23.733Z,101091.47
